sensor_id;sensor_type;location;lat;lon;timestamp;P1;durP1;ratioP1;P2;durP2;ratioP2
46651;SDS011;32377;52.182;5.398;2024-03-02T00:00:20;6.25;;;1.52;;
46651;SDS011;32377;52.182;5.398;2024-03-02T00:02:47;2.42;;;1.60;;
46651;SDS011;32377;52.182;5.398;2024-03-02T00:05:15;5.50;;;1.60;;
46651;SDS011;32377;52.182;5.398;2024-03-02T00:07:42;3.92;;;1.50;;
46651;SDS011;32377;52.182;5.398;2024-03-02T00:10:09;2.63;;;1.77;;
46651;SDS011;32377;52.182;5.398;2024-03-02T00:12:38;3.83;;;1.35;;
46651;SDS011;32377;52.182;5.398;2024-03-02T00:15:05;3.53;;;1.48;;
46651;SDS011;32377;52.182;5.398;2024-03-02T00:17:48;3.25;;;1.30;;
46651;SDS011;32377;52.182;5.398;2024-03-02T00:20:18;2.58;;;1.10;;
46651;SDS011;32377;52.182;5.398;2024-03-02T00:22:47;3.72;;;1.73;;
46651;SDS011;32377;52.182;5.398;2024-03-02T00:25:13;3.33;;;1.90;;
46651;SDS011;32377;52.182;5.398;2024-03-02T00:27:39;2.78;;;1.20;;
46651;SDS011;32377;52.182;5.398;2024-03-02T00:30:06;1.80;;;0.93;;
46651;SDS011;32377;52.182;5.398;2024-03-02T00:32:58;3.83;;;1.35;;
46651;SDS011;32377;52.182;5.398;2024-03-02T00:35:24;3.42;;;1.27;;
46651;SDS011;32377;52.182;5.398;2024-03-02T00:37:50;4.90;;;1.50;;
46651;SDS011;32377;52.182;5.398;2024-03-02T00:40:16;3.00;;;1.30;;
46651;SDS011;32377;52.182;5.398;2024-03-02T00:42:42;4.07;;;1.52;;
46651;SDS011;32377;52.182;5.398;2024-03-02T00:45:08;3.03;;;1.10;;
46651;SDS011;32377;52.182;5.398;2024-03-02T00:47:37;2.67;;;1.10;;
46651;SDS011;32377;52.182;5.398;2024-03-02T00:50:04;1.52;;;1.15;;
46651;SDS011;32377;52.182;5.398;2024-03-02T00:52:31;2.58;;;1.10;;
46651;SDS011;32377;52.182;5.398;2024-03-02T00:54:58;2.67;;;1.10;;
46651;SDS011;32377;52.182;5.398;2024-03-02T00:57:24;5.18;;;1.35;;
46651;SDS011;32377;52.182;5.398;2024-03-02T00:59:51;3.88;;;0.82;;
46651;SDS011;32377;52.182;5.398;2024-03-02T01:02:17;2.33;;;0.70;;
46651;SDS011;32377;52.182;5.398;2024-03-02T01:04:45;2.13;;;0.60;;
46651;SDS011;32377;52.182;5.398;2024-03-02T01:07:10;1.35;;;0.60;;
46651;SDS011;32377;52.182;5.398;2024-03-02T01:09:36;0.90;;;0.57;;
46651;SDS011;32377;52.182;5.398;2024-03-02T01:12:02;1.05;;;0.45;;
46651;SDS011;32377;52.182;5.398;2024-03-02T01:14:27;1.70;;;0.63;;
46651;SDS011;32377;52.182;5.398;2024-03-02T01:16:53;1.10;;;0.50;;
46651;SDS011;32377;52.182;5.398;2024-03-02T01:19:19;0.95;;;0.60;;
46651;SDS011;32377;52.182;5.398;2024-03-02T01:21:44;0.85;;;0.60;;
46651;SDS011;32377;52.182;5.398;2024-03-02T01:24:10;1.38;;;0.47;;
46651;SDS011;32377;52.182;5.398;2024-03-02T01:26:38;0.60;;;0.50;;
46651;SDS011;32377;52.182;5.398;2024-03-02T01:29:03;1.90;;;0.50;;
46651;SDS011;32377;52.182;5.398;2024-03-02T01:31:29;1.30;;;0.50;;
46651;SDS011;32377;52.182;5.398;2024-03-02T01:33:54;1.52;;;0.50;;
46651;SDS011;32377;52.182;5.398;2024-03-02T01:36:21;1.05;;;0.57;;
46651;SDS011;32377;52.182;5.398;2024-03-02T01:38:46;2.83;;;0.52;;
46651;SDS011;32377;52.182;5.398;2024-03-02T01:41:12;0.77;;;0.60;;
46651;SDS011;32377;52.182;5.398;2024-03-02T01:43:37;2.05;;;0.60;;
46651;SDS011;32377;52.182;5.398;2024-03-02T01:46:04;1.33;;;0.40;;
46651;SDS011;32377;52.182;5.398;2024-03-02T01:48:29;1.73;;;0.50;;
46651;SDS011;32377;52.182;5.398;2024-03-02T01:50:55;0.65;;;0.43;;
46651;SDS011;32377;52.182;5.398;2024-03-02T01:53:20;4.30;;;0.45;;
46651;SDS011;32377;52.182;5.398;2024-03-02T01:55:46;1.08;;;0.63;;
46651;SDS011;32377;52.182;5.398;2024-03-02T01:58:11;0.85;;;0.30;;
46651;SDS011;32377;52.182;5.398;2024-03-02T02:00:37;1.52;;;0.50;;
46651;SDS011;32377;52.182;5.398;2024-03-02T02:03:03;1.20;;;0.40;;
46651;SDS011;32377;52.182;5.398;2024-03-02T02:05:28;0.40;;;0.32;;
46651;SDS011;32377;52.182;5.398;2024-03-02T02:07:54;0.43;;;0.43;;
46651;SDS011;32377;52.182;5.398;2024-03-02T02:10:20;1.17;;;0.40;;
46651;SDS011;32377;52.182;5.398;2024-03-02T02:12:46;1.20;;;0.63;;
46651;SDS011;32377;52.182;5.398;2024-03-02T02:15:21;1.73;;;0.40;;
46651;SDS011;32377;52.182;5.398;2024-03-02T02:17:46;0.93;;;0.57;;
46651;SDS011;32377;52.182;5.398;2024-03-02T02:20:12;1.05;;;0.40;;
46651;SDS011;32377;52.182;5.398;2024-03-02T02:22:38;2.72;;;0.50;;
46651;SDS011;32377;52.182;5.398;2024-03-02T02:25:04;1.17;;;0.63;;
46651;SDS011;32377;52.182;5.398;2024-03-02T02:27:30;3.40;;;0.60;;
46651;SDS011;32377;52.182;5.398;2024-03-02T02:29:56;0.70;;;0.50;;
46651;SDS011;32377;52.182;5.398;2024-03-02T02:32:21;1.20;;;0.43;;
46651;SDS011;32377;52.182;5.398;2024-03-02T02:34:51;2.08;;;0.57;;
46651;SDS011;32377;52.182;5.398;2024-03-02T02:37:17;2.08;;;0.40;;
46651;SDS011;32377;52.182;5.398;2024-03-02T02:39:43;2.05;;;0.60;;
46651;SDS011;32377;52.182;5.398;2024-03-02T02:42:09;0.65;;;0.52;;
46651;SDS011;32377;52.182;5.398;2024-03-02T02:44:34;0.85;;;0.47;;
46651;SDS011;32377;52.182;5.398;2024-03-02T02:47:00;1.38;;;0.70;;
46651;SDS011;32377;52.182;5.398;2024-03-02T02:49:25;1.73;;;0.70;;
46651;SDS011;32377;52.182;5.398;2024-03-02T02:51:51;0.60;;;0.60;;
46651;SDS011;32377;52.182;5.398;2024-03-02T02:54:17;1.08;;;0.40;;
46651;SDS011;32377;52.182;5.398;2024-03-02T02:56:43;2.20;;;0.50;;
46651;SDS011;32377;52.182;5.398;2024-03-02T02:59:08;1.20;;;0.60;;
46651;SDS011;32377;52.182;5.398;2024-03-02T03:01:34;4.22;;;0.70;;
46651;SDS011;32377;52.182;5.398;2024-03-02T03:03:59;2.30;;;0.80;;
46651;SDS011;32377;52.182;5.398;2024-03-02T03:06:25;1.50;;;1.13;;
46651;SDS011;32377;52.182;5.398;2024-03-02T03:08:50;1.23;;;0.68;;
46651;SDS011;32377;52.182;5.398;2024-03-02T03:11:16;2.33;;;0.70;;
46651;SDS011;32377;52.182;5.398;2024-03-02T03:13:41;6.40;;;0.68;;
46651;SDS011;32377;52.182;5.398;2024-03-02T03:16:07;1.17;;;0.60;;
46651;SDS011;32377;52.182;5.398;2024-03-02T03:18:33;2.05;;;0.50;;
46651;SDS011;32377;52.182;5.398;2024-03-02T03:20:59;0.93;;;0.60;;
46651;SDS011;32377;52.182;5.398;2024-03-02T03:23:24;1.60;;;0.50;;
46651;SDS011;32377;52.182;5.398;2024-03-02T03:25:51;2.20;;;0.50;;
46651;SDS011;32377;52.182;5.398;2024-03-02T03:28:16;1.83;;;0.45;;
46651;SDS011;32377;52.182;5.398;2024-03-02T03:30:42;0.93;;;0.57;;
46651;SDS011;32377;52.182;5.398;2024-03-02T03:33:08;0.50;;;0.47;;
46651;SDS011;32377;52.182;5.398;2024-03-02T03:35:34;0.80;;;0.47;;
46651;SDS011;32377;52.182;5.398;2024-03-02T03:38:01;0.80;;;0.63;;
46651;SDS011;32377;52.182;5.398;2024-03-02T03:40:27;3.85;;;0.50;;
46651;SDS011;32377;52.182;5.398;2024-03-02T03:42:52;1.63;;;0.45;;
46651;SDS011;32377;52.182;5.398;2024-03-02T03:45:18;0.73;;;0.52;;
46651;SDS011;32377;52.182;5.398;2024-03-02T03:47:43;3.42;;;0.68;;
46651;SDS011;32377;52.182;5.398;2024-03-02T03:50:09;1.50;;;0.60;;
46651;SDS011;32377;52.182;5.398;2024-03-02T03:52:35;3.90;;;0.70;;
46651;SDS011;32377;52.182;5.398;2024-03-02T03:55:00;0.75;;;0.52;;
46651;SDS011;32377;52.182;5.398;2024-03-02T03:57:26;4.07;;;0.57;;
46651;SDS011;32377;52.182;5.398;2024-03-02T03:59:52;1.30;;;0.40;;
46651;SDS011;32377;52.182;5.398;2024-03-02T04:02:18;1.98;;;0.50;;
46651;SDS011;32377;52.182;5.398;2024-03-02T04:04:44;1.25;;;0.50;;
46651;SDS011;32377;52.182;5.398;2024-03-02T04:07:10;0.60;;;0.40;;
46651;SDS011;32377;52.182;5.398;2024-03-02T04:09:35;2.45;;;0.50;;
46651;SDS011;32377;52.182;5.398;2024-03-02T04:12:01;1.80;;;0.70;;
46651;SDS011;32377;52.182;5.398;2024-03-02T04:14:27;1.17;;;0.40;;
46651;SDS011;32377;52.182;5.398;2024-03-02T04:16:52;2.58;;;0.45;;
46651;SDS011;32377;52.182;5.398;2024-03-02T04:19:18;1.25;;;0.70;;
46651;SDS011;32377;52.182;5.398;2024-03-02T04:21:43;0.70;;;0.50;;
46651;SDS011;32377;52.182;5.398;2024-03-02T04:24:09;1.75;;;0.43;;
46651;SDS011;32377;52.182;5.398;2024-03-02T04:26:35;2.78;;;0.68;;
46651;SDS011;32377;52.182;5.398;2024-03-02T04:29:00;0.50;;;0.47;;
46651;SDS011;32377;52.182;5.398;2024-03-02T04:31:26;1.88;;;0.70;;
46651;SDS011;32377;52.182;5.398;2024-03-02T04:33:52;1.33;;;0.60;;
46651;SDS011;32377;52.182;5.398;2024-03-02T04:36:18;1.50;;;0.60;;
46651;SDS011;32377;52.182;5.398;2024-03-02T04:38:44;1.33;;;1.13;;
46651;SDS011;32377;52.182;5.398;2024-03-02T04:41:11;1.38;;;0.70;;
46651;SDS011;32377;52.182;5.398;2024-03-02T04:43:36;5.07;;;0.80;;
46651;SDS011;32377;52.182;5.398;2024-03-02T04:46:02;1.58;;;0.63;;
46651;SDS011;32377;52.182;5.398;2024-03-02T04:48:28;0.85;;;0.55;;
46651;SDS011;32377;52.182;5.398;2024-03-02T04:50:53;3.47;;;1.13;;
46651;SDS011;32377;52.182;5.398;2024-03-02T04:53:19;0.47;;;0.43;;
46651;SDS011;32377;52.182;5.398;2024-03-02T04:55:44;0.82;;;0.60;;
46651;SDS011;32377;52.182;5.398;2024-03-02T04:59:27;2.47;;;0.70;;
46651;SDS011;32377;52.182;5.398;2024-03-02T05:01:52;1.58;;;0.60;;
46651;SDS011;32377;52.182;5.398;2024-03-02T05:04:18;1.73;;;0.65;;
46651;SDS011;32377;52.182;5.398;2024-03-02T05:06:44;3.80;;;0.60;;
46651;SDS011;32377;52.182;5.398;2024-03-02T05:09:09;3.78;;;0.77;;
46651;SDS011;32377;52.182;5.398;2024-03-02T05:11:35;1.58;;;0.73;;
46651;SDS011;32377;52.182;5.398;2024-03-02T05:14:18;1.23;;;0.50;;
46651;SDS011;32377;52.182;5.398;2024-03-02T05:16:44;2.03;;;0.43;;
46651;SDS011;32377;52.182;5.398;2024-03-02T05:19:09;1.33;;;0.60;;
46651;SDS011;32377;52.182;5.398;2024-03-02T05:21:35;1.20;;;0.50;;
46651;SDS011;32377;52.182;5.398;2024-03-02T05:24:01;3.10;;;0.55;;
46651;SDS011;32377;52.182;5.398;2024-03-02T05:26:27;1.70;;;0.70;;
46651;SDS011;32377;52.182;5.398;2024-03-02T05:28:52;1.90;;;0.60;;
46651;SDS011;32377;52.182;5.398;2024-03-02T05:31:18;1.73;;;0.68;;
46651;SDS011;32377;52.182;5.398;2024-03-02T05:33:43;5.20;;;0.60;;
46651;SDS011;32377;52.182;5.398;2024-03-02T05:36:09;1.92;;;0.45;;
46651;SDS011;32377;52.182;5.398;2024-03-02T05:38:38;3.70;;;0.63;;
46651;SDS011;32377;52.182;5.398;2024-03-02T05:41:04;1.83;;;0.55;;
46651;SDS011;32377;52.182;5.398;2024-03-02T05:43:29;1.80;;;0.60;;
46651;SDS011;32377;52.182;5.398;2024-03-02T05:45:55;2.83;;;0.68;;
46651;SDS011;32377;52.182;5.398;2024-03-02T05:48:20;2.40;;;0.50;;
46651;SDS011;32377;52.182;5.398;2024-03-02T05:50:46;1.17;;;0.47;;
46651;SDS011;32377;52.182;5.398;2024-03-02T05:53:11;1.88;;;0.65;;
46651;SDS011;32377;52.182;5.398;2024-03-02T05:55:37;2.38;;;0.60;;
46651;SDS011;32377;52.182;5.398;2024-03-02T05:58:03;2.95;;;0.80;;
46651;SDS011;32377;52.182;5.398;2024-03-02T06:00:31;1.38;;;0.55;;
46651;SDS011;32377;52.182;5.398;2024-03-02T06:02:57;2.50;;;0.60;;
46651;SDS011;32377;52.182;5.398;2024-03-02T06:05:23;3.50;;;0.60;;
46651;SDS011;32377;52.182;5.398;2024-03-02T06:07:49;5.22;;;0.90;;
46651;SDS011;32377;52.182;5.398;2024-03-02T06:10:15;1.23;;;0.70;;
46651;SDS011;32377;52.182;5.398;2024-03-02T06:12:41;9.40;;;0.70;;
46651;SDS011;32377;52.182;5.398;2024-03-02T06:15:07;2.88;;;0.57;;
46651;SDS011;32377;52.182;5.398;2024-03-02T06:17:34;3.47;;;0.90;;
46651;SDS011;32377;52.182;5.398;2024-03-02T06:20:00;1.35;;;0.57;;
46651;SDS011;32377;52.182;5.398;2024-03-02T06:22:26;2.47;;;0.55;;
46651;SDS011;32377;52.182;5.398;2024-03-02T06:24:51;3.20;;;0.65;;
46651;SDS011;32377;52.182;5.398;2024-03-02T06:27:17;1.45;;;0.50;;
46651;SDS011;32377;52.182;5.398;2024-03-02T06:29:42;4.05;;;0.70;;
46651;SDS011;32377;52.182;5.398;2024-03-02T06:32:08;1.65;;;0.70;;
46651;SDS011;32377;52.182;5.398;2024-03-02T06:34:34;2.80;;;0.75;;
46651;SDS011;32377;52.182;5.398;2024-03-02T06:36:59;2.33;;;0.70;;
46651;SDS011;32377;52.182;5.398;2024-03-02T06:39:25;4.43;;;0.60;;
46651;SDS011;32377;52.182;5.398;2024-03-02T06:41:51;2.75;;;0.80;;
46651;SDS011;32377;52.182;5.398;2024-03-02T06:44:16;5.90;;;0.93;;
46651;SDS011;32377;52.182;5.398;2024-03-02T06:46:42;4.82;;;0.77;;
46651;SDS011;32377;52.182;5.398;2024-03-02T06:49:08;2.63;;;0.70;;
46651;SDS011;32377;52.182;5.398;2024-03-02T06:51:35;3.90;;;1.05;;
46651;SDS011;32377;52.182;5.398;2024-03-02T06:54:01;1.55;;;0.70;;
46651;SDS011;32377;52.182;5.398;2024-03-02T06:56:27;3.60;;;0.80;;
46651;SDS011;32377;52.182;5.398;2024-03-02T06:58:52;1.90;;;0.75;;
46651;SDS011;32377;52.182;5.398;2024-03-02T07:01:18;4.88;;;0.90;;
46651;SDS011;32377;52.182;5.398;2024-03-02T07:03:45;1.55;;;0.93;;
46651;SDS011;32377;52.182;5.398;2024-03-02T07:06:10;2.55;;;0.70;;
46651;SDS011;32377;52.182;5.398;2024-03-02T07:08:36;1.40;;;0.65;;
46651;SDS011;32377;52.182;5.398;2024-03-02T07:11:02;2.85;;;0.90;;
46651;SDS011;32377;52.182;5.398;2024-03-02T07:13:27;5.30;;;0.80;;
46651;SDS011;32377;52.182;5.398;2024-03-02T07:15:53;5.63;;;1.00;;
46651;SDS011;32377;52.182;5.398;2024-03-02T07:18:27;2.25;;;0.77;;
46651;SDS011;32377;52.182;5.398;2024-03-02T07:20:53;2.08;;;1.00;;
46651;SDS011;32377;52.182;5.398;2024-03-02T07:23:20;1.83;;;0.70;;
46651;SDS011;32377;52.182;5.398;2024-03-02T07:25:49;5.00;;;1.00;;
46651;SDS011;32377;52.182;5.398;2024-03-02T07:28:15;3.28;;;0.95;;
46651;SDS011;32377;52.182;5.398;2024-03-02T07:30:41;3.65;;;0.90;;
46651;SDS011;32377;52.182;5.398;2024-03-02T07:33:06;4.65;;;0.93;;
46651;SDS011;32377;52.182;5.398;2024-03-02T07:35:32;1.65;;;0.70;;
46651;SDS011;32377;52.182;5.398;2024-03-02T07:37:58;2.70;;;0.73;;
46651;SDS011;32377;52.182;5.398;2024-03-02T07:40:24;2.08;;;0.77;;
46651;SDS011;32377;52.182;5.398;2024-03-02T07:42:49;1.85;;;0.75;;
46651;SDS011;32377;52.182;5.398;2024-03-02T07:45:15;4.97;;;0.80;;
46651;SDS011;32377;52.182;5.398;2024-03-02T07:47:41;3.20;;;0.70;;
46651;SDS011;32377;52.182;5.398;2024-03-02T07:50:07;6.43;;;1.02;;
46651;SDS011;32377;52.182;5.398;2024-03-02T07:52:33;2.05;;;0.90;;
46651;SDS011;32377;52.182;5.398;2024-03-02T07:54:58;1.85;;;0.60;;
46651;SDS011;32377;52.182;5.398;2024-03-02T07:57:24;4.28;;;0.82;;
46651;SDS011;32377;52.182;5.398;2024-03-02T07:59:50;6.70;;;0.80;;
46651;SDS011;32377;52.182;5.398;2024-03-02T08:02:16;1.42;;;0.60;;
46651;SDS011;32377;52.182;5.398;2024-03-02T08:04:42;4.07;;;0.65;;
46651;SDS011;32377;52.182;5.398;2024-03-02T08:07:08;2.42;;;0.63;;
46651;SDS011;32377;52.182;5.398;2024-03-02T08:09:34;1.20;;;0.50;;
46651;SDS011;32377;52.182;5.398;2024-03-02T08:12:00;2.25;;;0.65;;
46651;SDS011;32377;52.182;5.398;2024-03-02T08:14:25;2.47;;;0.75;;
46651;SDS011;32377;52.182;5.398;2024-03-02T08:16:51;1.83;;;0.63;;
46651;SDS011;32377;52.182;5.398;2024-03-02T08:19:17;3.63;;;0.60;;
46651;SDS011;32377;52.182;5.398;2024-03-02T08:21:43;6.28;;;0.88;;
46651;SDS011;32377;52.182;5.398;2024-03-02T08:24:09;2.78;;;0.82;;
46651;SDS011;32377;52.182;5.398;2024-03-02T08:26:34;3.15;;;0.98;;
46651;SDS011;32377;52.182;5.398;2024-03-02T08:29:00;1.90;;;0.57;;
46651;SDS011;32377;52.182;5.398;2024-03-02T08:31:28;4.00;;;1.25;;
46651;SDS011;32377;52.182;5.398;2024-03-02T08:33:54;3.78;;;0.60;;
46651;SDS011;32377;52.182;5.398;2024-03-02T08:36:20;6.85;;;0.80;;
46651;SDS011;32377;52.182;5.398;2024-03-02T08:38:46;3.22;;;0.80;;
46651;SDS011;32377;52.182;5.398;2024-03-02T08:41:13;3.13;;;0.63;;
46651;SDS011;32377;52.182;5.398;2024-03-02T08:43:40;2.17;;;0.50;;
46651;SDS011;32377;52.182;5.398;2024-03-02T08:46:06;4.03;;;0.70;;
46651;SDS011;32377;52.182;5.398;2024-03-02T08:48:32;1.98;;;0.70;;
46651;SDS011;32377;52.182;5.398;2024-03-02T08:50:58;3.55;;;0.82;;
46651;SDS011;32377;52.182;5.398;2024-03-02T08:53:23;3.58;;;0.85;;
46651;SDS011;32377;52.182;5.398;2024-03-02T08:55:49;3.05;;;0.68;;
46651;SDS011;32377;52.182;5.398;2024-03-02T08:58:15;6.30;;;1.00;;
46651;SDS011;32377;52.182;5.398;2024-03-02T09:00:40;4.78;;;0.90;;
46651;SDS011;32377;52.182;5.398;2024-03-02T09:03:07;11.52;;;1.58;;
46651;SDS011;32377;52.182;5.398;2024-03-02T09:05:32;2.15;;;0.82;;
46651;SDS011;32377;52.182;5.398;2024-03-02T09:07:58;2.88;;;0.73;;
46651;SDS011;32377;52.182;5.398;2024-03-02T09:10:24;2.53;;;0.65;;
46651;SDS011;32377;52.182;5.398;2024-03-02T09:12:49;2.13;;;0.55;;
46651;SDS011;32377;52.182;5.398;2024-03-02T09:15:15;6.28;;;0.82;;
46651;SDS011;32377;52.182;5.398;2024-03-02T09:17:41;10.30;;;0.90;;
46651;SDS011;32377;52.182;5.398;2024-03-02T09:20:06;5.10;;;2.03;;
46651;SDS011;32377;52.182;5.398;2024-03-02T09:22:32;4.57;;;1.05;;
46651;SDS011;32377;52.182;5.398;2024-03-02T09:24:58;9.90;;;1.30;;
46651;SDS011;32377;52.182;5.398;2024-03-02T09:27:24;5.43;;;0.93;;
46651;SDS011;32377;52.182;5.398;2024-03-02T09:29:49;5.57;;;1.10;;
46651;SDS011;32377;52.182;5.398;2024-03-02T09:32:15;4.82;;;0.98;;
46651;SDS011;32377;52.182;5.398;2024-03-02T09:34:40;6.45;;;1.00;;
46651;SDS011;32377;52.182;5.398;2024-03-02T09:37:06;8.07;;;1.08;;
46651;SDS011;32377;52.182;5.398;2024-03-02T09:39:32;9.77;;;1.10;;
46651;SDS011;32377;52.182;5.398;2024-03-02T09:42:01;4.38;;;0.80;;
46651;SDS011;32377;52.182;5.398;2024-03-02T09:44:29;5.40;;;1.20;;
46651;SDS011;32377;52.182;5.398;2024-03-02T09:46:54;4.60;;;0.88;;
46651;SDS011;32377;52.182;5.398;2024-03-02T09:49:20;4.60;;;1.30;;
46651;SDS011;32377;52.182;5.398;2024-03-02T09:51:47;4.07;;;0.80;;
46651;SDS011;32377;52.182;5.398;2024-03-02T09:54:14;5.78;;;1.40;;
46651;SDS011;32377;52.182;5.398;2024-03-02T09:56:41;6.18;;;1.30;;
46651;SDS011;32377;52.182;5.398;2024-03-02T09:59:06;7.53;;;2.25;;
46651;SDS011;32377;52.182;5.398;2024-03-02T10:01:32;3.45;;;0.85;;
46651;SDS011;32377;52.182;5.398;2024-03-02T10:04:01;5.72;;;1.20;;
46651;SDS011;32377;52.182;5.398;2024-03-02T10:06:29;5.47;;;1.00;;
46651;SDS011;32377;52.182;5.398;2024-03-02T10:08:55;7.80;;;1.08;;
46651;SDS011;32377;52.182;5.398;2024-03-02T10:11:33;3.42;;;0.98;;
46651;SDS011;32377;52.182;5.398;2024-03-02T10:14:09;3.33;;;0.73;;
46651;SDS011;32377;52.182;5.398;2024-03-02T10:16:39;5.70;;;1.10;;
46651;SDS011;32377;52.182;5.398;2024-03-02T10:19:15;3.45;;;1.00;;
46651;SDS011;32377;52.182;5.398;2024-03-02T10:21:54;2.85;;;0.82;;
46651;SDS011;32377;52.182;5.398;2024-03-02T10:24:21;9.00;;;1.40;;
46651;SDS011;32377;52.182;5.398;2024-03-02T10:26:47;5.57;;;1.27;;
46651;SDS011;32377;52.182;5.398;2024-03-02T10:29:13;7.15;;;1.25;;
46651;SDS011;32377;52.182;5.398;2024-03-02T10:31:43;4.13;;;1.00;;
46651;SDS011;32377;52.182;5.398;2024-03-02T10:34:10;6.72;;;1.33;;
46651;SDS011;32377;52.182;5.398;2024-03-02T10:36:37;6.63;;;1.05;;
46651;SDS011;32377;52.182;5.398;2024-03-02T10:39:07;3.80;;;1.02;;
46651;SDS011;32377;52.182;5.398;2024-03-02T10:41:34;4.40;;;1.10;;
46651;SDS011;32377;52.182;5.398;2024-03-02T10:44:04;8.25;;;1.63;;
46651;SDS011;32377;52.182;5.398;2024-03-02T10:46:32;5.00;;;1.20;;
46651;SDS011;32377;52.182;5.398;2024-03-02T10:48:59;7.40;;;1.42;;
46651;SDS011;32377;52.182;5.398;2024-03-02T10:51:27;4.18;;;0.90;;
46651;SDS011;32377;52.182;5.398;2024-03-02T10:53:56;4.55;;;0.95;;
46651;SDS011;32377;52.182;5.398;2024-03-02T10:59:33;6.28;;;1.50;;
46651;SDS011;32377;52.182;5.398;2024-03-02T11:02:00;3.28;;;0.95;;
46651;SDS011;32377;52.182;5.398;2024-03-02T11:04:28;2.08;;;0.70;;
46651;SDS011;32377;52.182;5.398;2024-03-02T11:06:56;4.70;;;1.00;;
46651;SDS011;32377;52.182;5.398;2024-03-02T11:09:35;1.85;;;0.90;;
46651;SDS011;32377;52.182;5.398;2024-03-02T11:15:14;4.50;;;0.77;;
46651;SDS011;32377;52.182;5.398;2024-03-02T11:17:44;5.68;;;0.90;;
46651;SDS011;32377;52.182;5.398;2024-03-02T11:20:09;3.28;;;0.98;;
46651;SDS011;32377;52.182;5.398;2024-03-02T11:22:36;3.83;;;0.90;;
46651;SDS011;32377;52.182;5.398;2024-03-02T11:25:02;4.95;;;0.90;;
46651;SDS011;32377;52.182;5.398;2024-03-02T11:32:57;5.33;;;0.77;;
46651;SDS011;32377;52.182;5.398;2024-03-02T11:35:26;5.13;;;1.00;;
46651;SDS011;32377;52.182;5.398;2024-03-02T11:37:55;3.50;;;0.70;;
46651;SDS011;32377;52.182;5.398;2024-03-02T11:40:27;3.97;;;0.98;;
46651;SDS011;32377;52.182;5.398;2024-03-02T11:42:53;2.90;;;0.85;;
46651;SDS011;32377;52.182;5.398;2024-03-02T11:45:37;5.47;;;1.58;;
46651;SDS011;32377;52.182;5.398;2024-03-02T11:48:08;3.53;;;0.90;;
46651;SDS011;32377;52.182;5.398;2024-03-02T11:50:48;3.75;;;0.77;;
46651;SDS011;32377;52.182;5.398;2024-03-02T11:53:15;2.35;;;0.77;;
46651;SDS011;32377;52.182;5.398;2024-03-02T11:55:41;4.60;;;1.20;;
46651;SDS011;32377;52.182;5.398;2024-03-02T11:58:11;7.30;;;1.08;;
46651;SDS011;32377;52.182;5.398;2024-03-02T12:00:37;4.72;;;1.20;;
46651;SDS011;32377;52.182;5.398;2024-03-02T12:03:03;4.80;;;0.85;;
46651;SDS011;32377;52.182;5.398;2024-03-02T12:05:33;9.38;;;1.00;;
46651;SDS011;32377;52.182;5.398;2024-03-02T12:08:01;4.18;;;0.70;;
46651;SDS011;32377;52.182;5.398;2024-03-02T12:10:28;5.25;;;0.60;;
46651;SDS011;32377;52.182;5.398;2024-03-02T12:13:00;4.03;;;0.77;;
46651;SDS011;32377;52.182;5.398;2024-03-02T12:15:33;4.93;;;0.90;;
46651;SDS011;32377;52.182;5.398;2024-03-02T12:18:00;4.00;;;0.80;;
46651;SDS011;32377;52.182;5.398;2024-03-02T12:20:27;2.75;;;0.70;;
46651;SDS011;32377;52.182;5.398;2024-03-02T12:22:55;4.97;;;0.90;;
46651;SDS011;32377;52.182;5.398;2024-03-02T12:25:24;5.00;;;1.08;;
46651;SDS011;32377;52.182;5.398;2024-03-02T12:27:54;3.38;;;0.98;;
46651;SDS011;32377;52.182;5.398;2024-03-02T12:30:21;5.07;;;1.00;;
46651;SDS011;32377;52.182;5.398;2024-03-02T12:32:47;1.77;;;0.60;;
46651;SDS011;32377;52.182;5.398;2024-03-02T12:35:14;4.40;;;1.00;;
46651;SDS011;32377;52.182;5.398;2024-03-02T12:37:50;4.03;;;0.70;;
46651;SDS011;32377;52.182;5.398;2024-03-02T12:40:17;2.17;;;0.70;;
46651;SDS011;32377;52.182;5.398;2024-03-02T12:42:47;4.47;;;0.73;;
46651;SDS011;32377;52.182;5.398;2024-03-02T12:45:14;5.97;;;0.80;;
46651;SDS011;32377;52.182;5.398;2024-03-02T12:47:41;3.33;;;0.80;;
46651;SDS011;32377;52.182;5.398;2024-03-02T12:50:07;4.00;;;0.90;;
46651;SDS011;32377;52.182;5.398;2024-03-02T12:52:34;4.32;;;1.02;;
46651;SDS011;32377;52.182;5.398;2024-03-02T12:55:01;4.22;;;1.27;;
46651;SDS011;32377;52.182;5.398;2024-03-02T12:57:29;2.72;;;0.80;;
46651;SDS011;32377;52.182;5.398;2024-03-02T13:00:03;6.25;;;1.20;;
46651;SDS011;32377;52.182;5.398;2024-03-02T13:02:39;5.35;;;1.02;;
46651;SDS011;32377;52.182;5.398;2024-03-02T13:05:05;6.22;;;1.40;;
46651;SDS011;32377;52.182;5.398;2024-03-02T13:07:36;2.95;;;0.77;;
46651;SDS011;32377;52.182;5.398;2024-03-02T13:10:06;3.30;;;1.00;;
46651;SDS011;32377;52.182;5.398;2024-03-02T13:12:33;4.45;;;0.98;;
46651;SDS011;32377;52.182;5.398;2024-03-02T13:15:01;5.00;;;1.13;;
46651;SDS011;32377;52.182;5.398;2024-03-02T13:17:28;5.95;;;1.08;;
46651;SDS011;32377;52.182;5.398;2024-03-02T13:19:57;4.32;;;0.95;;
46651;SDS011;32377;52.182;5.398;2024-03-02T13:22:24;4.22;;;1.10;;
46651;SDS011;32377;52.182;5.398;2024-03-02T13:24:51;4.60;;;1.20;;
46651;SDS011;32377;52.182;5.398;2024-03-02T13:27:18;3.85;;;1.45;;
46651;SDS011;32377;52.182;5.398;2024-03-02T13:29:47;5.38;;;1.25;;
46651;SDS011;32377;52.182;5.398;2024-03-02T13:32:13;7.50;;;1.25;;
46651;SDS011;32377;52.182;5.398;2024-03-02T13:34:39;3.33;;;1.05;;
46651;SDS011;32377;52.182;5.398;2024-03-02T13:37:05;4.38;;;1.00;;
46651;SDS011;32377;52.182;5.398;2024-03-02T13:39:31;7.55;;;1.70;;
46651;SDS011;32377;52.182;5.398;2024-03-02T13:41:58;6.28;;;1.00;;
46651;SDS011;32377;52.182;5.398;2024-03-02T13:44:29;4.45;;;1.52;;
46651;SDS011;32377;52.182;5.398;2024-03-02T13:46:55;2.17;;;1.13;;
46651;SDS011;32377;52.182;5.398;2024-03-02T13:49:22;4.95;;;1.17;;
46651;SDS011;32377;52.182;5.398;2024-03-02T13:51:48;4.30;;;1.10;;
46651;SDS011;32377;52.182;5.398;2024-03-02T13:54:14;7.90;;;1.67;;
46651;SDS011;32377;52.182;5.398;2024-03-02T13:56:39;6.70;;;1.05;;
46651;SDS011;32377;52.182;5.398;2024-03-02T13:59:06;5.07;;;1.48;;
46651;SDS011;32377;52.182;5.398;2024-03-02T14:01:32;8.50;;;1.60;;
46651;SDS011;32377;52.182;5.398;2024-03-02T14:03:58;5.97;;;1.20;;
46651;SDS011;32377;52.182;5.398;2024-03-02T14:06:24;5.32;;;1.02;;
46651;SDS011;32377;52.182;5.398;2024-03-02T14:08:51;9.63;;;1.50;;
46651;SDS011;32377;52.182;5.398;2024-03-02T14:11:17;4.25;;;1.33;;
46651;SDS011;32377;52.182;5.398;2024-03-02T14:13:44;6.63;;;1.23;;
46651;SDS011;32377;52.182;5.398;2024-03-02T14:16:18;8.85;;;1.88;;
46651;SDS011;32377;52.182;5.398;2024-03-02T14:18:44;4.55;;;1.58;;
46651;SDS011;32377;52.182;5.398;2024-03-02T14:21:10;4.82;;;1.35;;
46651;SDS011;32377;52.182;5.398;2024-03-02T14:23:35;5.97;;;1.38;;
46651;SDS011;32377;52.182;5.398;2024-03-02T14:26:01;5.28;;;1.60;;
46651;SDS011;32377;52.182;5.398;2024-03-02T14:28:26;5.28;;;1.25;;
46651;SDS011;32377;52.182;5.398;2024-03-02T14:30:52;3.35;;;1.20;;
46651;SDS011;32377;52.182;5.398;2024-03-02T14:33:18;6.43;;;1.40;;
46651;SDS011;32377;52.182;5.398;2024-03-02T14:35:44;5.72;;;1.73;;
46651;SDS011;32377;52.182;5.398;2024-03-02T14:38:10;5.60;;;1.38;;
46651;SDS011;32377;52.182;5.398;2024-03-02T14:40:37;8.07;;;1.70;;
46651;SDS011;32377;52.182;5.398;2024-03-02T14:43:02;5.57;;;1.48;;
46651;SDS011;32377;52.182;5.398;2024-03-02T14:45:28;3.05;;;0.95;;
46651;SDS011;32377;52.182;5.398;2024-03-02T14:47:54;4.68;;;1.15;;
46651;SDS011;32377;52.182;5.398;2024-03-02T14:50:20;4.53;;;1.63;;
46651;SDS011;32377;52.182;5.398;2024-03-02T14:52:46;3.70;;;1.40;;
46651;SDS011;32377;52.182;5.398;2024-03-02T14:55:12;4.97;;;1.50;;
46651;SDS011;32377;52.182;5.398;2024-03-02T14:57:38;4.15;;;1.10;;